Time;durP1;ratioP1;P1;durP2;ratioP2;P2;SDS_P1;SDS_P2;PMS_P1;PMS_P2;Temp;Humidity;BMP_temperature;BMP_pressure;BME280_temperature;BME280_humidity;BME280_pressure;Samples;Min_cycle;Max_cycle;Signal;HPM_P1;HPM_P2
2023/08/10 00:01:57;;;;;;;2.93;1.93;;;11.60;99.90;;;;;;5072235;28;20520;-51
2023/08/10 00:04:25;;;;;;;4.07;1.57;;;11.50;99.90;;;;;;5072124;28;20489;-51
2023/08/10 00:06:52;;;;;;;3.03;1.90;;;11.50;99.90;;;;;;5067544;28;20503;-51
2023/08/10 00:09:18;;;;;;;4.67;1.63;;;11.50;99.90;;;;;;5073409;28;20437;-50
2023/08/10 00:11:45;;;;;;;2.40;1.50;;;11.50;99.90;;;;;;5070887;28;21258;-50
2023/08/10 00:14:11;;;;;;;2.87;1.50;;;11.50;99.90;;;;;;5072777;28;20891;-51
2023/08/10 00:16:38;;;;;;;2.30;1.50;;;11.50;99.90;;;;;;5070186;28;20483;-50
2023/08/10 00:19:05;;;;;;;3.83;1.53;;;11.50;99.90;;;;;;5061050;28;20462;-51
2023/08/10 00:21:33;;;;;;;5.93;1.63;;;11.40;99.90;;;;;;5069122;28;20484;-51
2023/08/10 00:23:59;;;;;;;1.70;1.43;;;11.40;99.90;;;;;;5070958;28;20494;-50
2023/08/10 00:26:26;;;;;;;1.73;1.43;;;11.50;99.90;;;;;;5071312;28;20457;-51
2023/08/10 00:28:53;;;;;;;2.33;1.50;;;11.40;99.90;;;;;;5072262;28;20903;-50
2023/08/10 00:31:20;;;;;;;4.63;1.50;;;11.40;99.90;;;;;;5065078;28;20509;-51
2023/08/10 00:33:46;;;;;;;3.33;1.40;;;11.40;99.90;;;;;;5071391;28;20467;-51
2023/08/10 00:36:13;;;;;;;2.87;2.23;;;11.50;99.90;;;;;;5073054;28;20464;-51
2023/08/10 00:38:41;;;;;;;4.10;1.60;;;11.50;99.90;;;;;;5072322;28;20472;-50
2023/08/10 00:41:08;;;;;;;3.07;1.50;;;11.50;99.90;;;;;;5066139;28;20490;-50
2023/08/10 00:43:35;;;;;;;2.33;1.97;;;11.50;99.90;;;;;;5068649;28;20476;-50
2023/08/10 00:46:02;;;;;;;5.90;2.30;;;11.50;99.90;;;;;;5072120;28;20496;-50
2023/08/10 00:48:29;;;;;;;1.90;1.60;;;11.50;99.90;;;;;;5063771;28;20469;-51
2023/08/10 00:50:55;;;;;;;2.17;1.40;;;11.50;99.90;;;;;;5070906;28;20895;-51
2023/08/10 00:53:22;;;;;;;3.67;2.00;;;11.50;99.90;;;;;;5072954;28;20469;-51
2023/08/10 00:55:53;;;;;;;2.70;1.50;;;11.50;99.90;;;;;;5065186;28;20602;-51
2023/08/10 00:58:20;;;;;;;1.93;1.47;;;11.50;99.90;;;;;;5069607;28;20465;-51
2023/08/10 01:00:47;;;;;;;2.43;1.73;;;11.50;99.90;;;;;;5066112;28;20517;-51
2023/08/10 01:03:14;;;;;;;1.80;1.67;;;11.50;99.90;;;;;;5070660;28;20493;-51
2023/08/10 01:05:49;;;;;;;2.80;2.00;;;11.50;99.90;;;;;;5071870;28;20469;-49
2023/08/10 01:08:22;;;;;;;3.37;1.87;;;11.60;99.90;;;;;;5070245;28;20483;-50
2023/08/10 01:10:59;;;;;;;5.40;2.00;;;11.60;99.90;;;;;;5070668;28;20846;-50
2023/08/10 01:13:38;;;;;;;1.57;1.47;;;11.60;99.90;;;;;;5071078;28;20460;-50
2023/08/10 01:16:08;;;;;;;3.40;1.60;;;11.60;99.90;;;;;;5069247;28;20460;-50
2023/08/10 01:18:35;;;;;;;2.60;1.57;;;11.60;99.90;;;;;;5071655;28;20551;-51
2023/08/10 01:21:08;;;;;;;3.10;2.10;;;11.70;99.90;;;;;;5072142;28;20539;-50
2023/08/10 01:23:39;;;;;;;3.63;1.53;;;11.70;99.90;;;;;;5062740;28;20493;-51
2023/08/10 01:26:07;;;;;;;3.67;1.47;;;11.80;99.90;;;;;;5066792;28;20467;-52
2023/08/10 01:28:34;;;;;;;6.40;2.20;;;11.80;99.90;;;;;;5070376;28;20483;-51
2023/08/10 01:31:01;;;;;;;1.80;1.70;;;11.90;99.90;;;;;;5072022;28;20493;-50
2023/08/10 01:33:29;;;;;;;4.70;1.73;;;11.90;99.90;;;;;;5062992;28;20477;-51
2023/08/10 01:35:56;;;;;;;2.40;1.83;;;11.90;99.90;;;;;;5069136;28;20465;-50
2023/08/10 01:38:22;;;;;;;2.30;1.40;;;11.90;99.90;;;;;;5070188;28;20484;-51
2023/08/10 01:40:51;;;;;;;5.80;2.57;;;11.90;99.90;;;;;;5063781;28;20526;-50
2023/08/10 01:43:19;;;;;;;2.43;2.00;;;11.90;99.90;;;;;;5072023;28;20445;-51
2023/08/10 01:45:52;;;;;;;6.23;1.80;;;12.00;99.90;;;;;;5068148;28;20488;-51
2023/08/10 01:48:21;;;;;;;4.10;2.00;;;12.00;99.90;;;;;;5070932;28;20469;-50
2023/08/10 01:50:51;;;;;;;2.50;1.70;;;11.90;99.90;;;;;;5057837;28;20963;-50
2023/08/10 01:53:24;;;;;;;2.00;1.80;;;12.00;99.90;;;;;;5057644;28;20494;-51
2023/08/10 01:55:51;;;;;;;2.80;1.60;;;12.00;99.90;;;;;;5069435;28;20550;-50
2023/08/10 01:58:19;;;;;;;2.70;1.80;;;12.00;99.90;;;;;;5071598;28;20441;-51
2023/08/10 02:00:46;;;;;;;2.40;1.87;;;12.00;99.90;;;;;;5069717;28;20543;-50
2023/08/10 02:03:12;;;;;;;2.50;1.83;;;12.00;99.90;;;;;;5065566;28;20488;-51
2023/08/10 02:05:39;;;;;;;3.33;1.90;;;12.10;99.90;;;;;;5069860;28;21044;-51
2023/08/10 02:08:08;;;;;;;3.33;2.07;;;12.10;99.90;;;;;;5062061;28;20496;-50
2023/08/10 02:10:35;;;;;;;18.73;2.57;;;12.10;99.90;;;;;;5063209;28;20938;-50
2023/08/10 02:13:01;;;;;;;2.93;1.80;;;12.10;99.90;;;;;;5062550;28;20518;-50
2023/08/10 02:15:29;;;;;;;5.07;2.00;;;12.00;99.90;;;;;;5065737;28;20515;-51
2023/08/10 02:17:56;;;;;;;1.37;1.37;;;12.10;99.90;;;;;;5063144;28;20448;-52
2023/08/10 02:20:23;;;;;;;2.80;1.50;;;12.10;99.90;;;;;;5071777;28;20485;-51
2023/08/10 02:22:51;;;;;;;2.10;1.70;;;12.10;99.90;;;;;;5071560;28;20492;-51
2023/08/10 02:25:19;;;;;;;3.37;2.00;;;12.10;99.90;;;;;;5065406;28;20465;-51
2023/08/10 02:27:47;;;;;;;2.60;1.90;;;12.10;99.90;;;;;;5069953;28;20825;-50
2023/08/10 02:30:15;;;;;;;3.30;2.20;;;12.10;99.90;;;;;;5070886;28;20506;-50
2023/08/10 02:32:43;;;;;;;4.73;2.20;;;12.10;99.90;;;;;;5071277;28;21012;-50
2023/08/10 02:35:09;;;;;;;5.30;2.47;;;12.10;99.90;;;;;;5070738;28;20437;-50
2023/08/10 02:37:36;;;;;;;1.83;1.60;;;12.10;99.90;;;;;;5070370;28;20480;-50
2023/08/10 02:40:04;;;;;;;4.00;1.80;;;12.10;99.90;;;;;;5070389;28;20531;-51
2023/08/10 02:42:32;;;;;;;5.53;1.90;;;12.10;99.90;;;;;;5070007;28;20534;-50
2023/08/10 02:44:59;;;;;;;2.30;2.10;;;12.10;99.90;;;;;;5070454;28;20437;-50
2023/08/10 02:47:26;;;;;;;2.60;1.87;;;12.00;99.90;;;;;;5069941;28;20497;-50
2023/08/10 02:49:54;;;;;;;2.83;1.73;;;12.00;99.90;;;;;;5051275;28;20446;-50
2023/08/10 02:52:20;;;;;;;2.77;1.60;;;12.00;99.90;;;;;;5051121;28;20548;-51
2023/08/10 02:54:47;;;;;;;3.37;1.87;;;11.90;99.90;;;;;;5059691;28;20539;-51
2023/08/10 02:57:14;;;;;;;3.47;2.07;;;11.90;99.90;;;;;;5068655;28;20456;-51
2023/08/10 02:59:40;;;;;;;2.80;2.13;;;11.90;99.90;;;;;;5069389;28;20503;-51
2023/08/10 03:02:07;;;;;;;1.90;1.80;;;11.80;99.90;;;;;;5065905;28;20559;-50
2023/08/10 03:04:33;;;;;;;1.83;1.73;;;11.80;99.90;;;;;;5070821;28;20537;-52
2023/08/10 03:07:01;;;;;;;1.90;1.80;;;11.70;99.90;;;;;;5070391;28;20471;-52
2023/08/10 03:09:28;;;;;;;2.17;1.97;;;11.70;99.90;;;;;;5073032;28;20935;-53
2023/08/10 03:11:55;;;;;;;4.77;1.67;;;11.70;99.90;;;;;;5072813;28;20498;-53
2023/08/10 03:14:22;;;;;;;4.33;2.27;;;11.70;99.90;;;;;;5065707;28;20939;-53
2023/08/10 03:16:49;;;;;;;2.40;2.20;;;11.70;99.90;;;;;;5074071;28;20467;-53
2023/08/10 03:19:15;;;;;;;8.53;2.87;;;11.70;99.90;;;;;;5073738;28;20472;-53
2023/08/10 03:21:42;;;;;;;2.93;2.00;;;11.80;99.90;;;;;;5066214;28;20491;-52
2023/08/10 03:24:10;;;;;;;1.87;1.50;;;11.80;99.90;;;;;;5070874;28;20496;-52
2023/08/10 03:26:36;;;;;;;2.20;1.90;;;11.80;99.90;;;;;;5071520;28;20492;-52
2023/08/10 03:29:03;;;;;;;4.07;1.53;;;11.80;99.90;;;;;;5074571;28;20441;-51
2023/08/10 03:31:29;;;;;;;6.60;1.87;;;11.80;99.90;;;;;;5074446;28;20465;-53
2023/08/10 03:33:56;;;;;;;2.50;1.70;;;11.80;99.90;;;;;;5073780;28;20499;-52
2023/08/10 03:36:22;;;;;;;3.00;2.23;;;11.80;99.90;;;;;;5071910;28;20511;-52
2023/08/10 03:38:49;;;;;;;3.37;2.00;;;11.70;99.90;;;;;;5072097;28;20496;-53
2023/08/10 03:41:17;;;;;;;3.70;1.70;;;11.70;99.90;;;;;;5074095;28;20543;-52
2023/08/10 03:43:43;;;;;;;4.03;1.60;;;11.70;99.90;;;;;;5064462;28;20494;-53
2023/08/10 03:46:10;;;;;;;5.60;2.40;;;11.70;99.90;;;;;;5072373;28;20462;-53
2023/08/10 03:48:36;;;;;;;3.43;2.27;;;11.70;99.90;;;;;;5073148;28;20499;-52
2023/08/10 03:51:03;;;;;;;5.00;2.00;;;11.60;99.90;;;;;;5068348;28;20477;-52
2023/08/10 03:53:30;;;;;;;1.93;1.70;;;11.70;99.90;;;;;;5069492;28;20550;-52
2023/08/10 03:55:57;;;;;;;4.90;1.80;;;11.70;99.90;;;;;;5073046;28;20461;-52
2023/08/10 03:58:25;;;;;;;2.13;1.70;;;11.70;99.90;;;;;;5072046;28;20902;-52
2023/08/10 04:00:51;;;;;;;3.57;1.87;;;11.70;99.90;;;;;;5065267;28;21010;-54
2023/08/10 04:03:18;;;;;;;1.83;1.63;;;11.60;99.90;;;;;;5074084;28;20956;-53
2023/08/10 04:05:44;;;;;;;2.17;1.43;;;11.70;99.90;;;;;;5072103;28;20498;-52
2023/08/10 04:08:11;;;;;;;2.20;1.80;;;11.70;99.90;;;;;;5071212;28;20496;-52
2023/08/10 04:10:38;;;;;;;5.00;2.20;;;11.70;99.90;;;;;;5071001;28;20481;-52
2023/08/10 04:13:04;;;;;;;2.13;2.00;;;11.70;99.90;;;;;;5073119;28;20488;-52
2023/08/10 04:15:32;;;;;;;2.30;1.83;;;11.70;99.90;;;;;;5072989;28;20441;-52
2023/08/10 04:17:59;;;;;;;3.53;2.00;;;11.80;99.90;;;;;;5071524;28;20472;-53
2023/08/10 04:20:26;;;;;;;4.67;2.07;;;11.80;99.90;;;;;;5072968;28;20511;-52
2023/08/10 04:22:53;;;;;;;4.73;2.60;;;11.80;99.90;;;;;;5064509;28;20520;-52
2023/08/10 04:25:20;;;;;;;8.93;2.10;;;11.80;99.90;;;;;;5071784;28;20461;-52
2023/08/10 04:27:47;;;;;;;3.80;2.40;;;11.80;99.90;;;;;;5072146;28;20457;-52
2023/08/10 04:30:14;;;;;;;2.43;2.00;;;11.80;99.90;;;;;;5072544;28;20465;-53
2023/08/10 04:32:42;;;;;;;4.93;2.33;;;11.80;99.90;;;;;;5073236;28;20853;-52
2023/08/10 04:35:09;;;;;;;2.40;2.20;;;11.80;99.90;;;;;;5072548;28;21028;-52
2023/08/10 04:37:35;;;;;;;4.17;2.20;;;11.80;99.90;;;;;;5063052;28;20497;-53
2023/08/10 04:40:05;;;;;;;3.13;2.17;;;11.80;99.90;;;;;;5072603;28;20461;-52
2023/08/10 04:42:31;;;;;;;2.93;1.50;;;11.80;99.90;;;;;;5072982;28;20512;-52
2023/08/10 04:44:58;;;;;;;3.10;2.07;;;11.80;99.90;;;;;;5071465;28;20464;-53
2023/08/10 04:47:24;;;;;;;4.73;1.93;;;11.80;99.90;;;;;;5070420;28;20495;-52
2023/08/10 04:49:52;;;;;;;6.37;2.93;;;11.80;99.90;;;;;;5072826;28;20469;-52
2023/08/10 04:52:19;;;;;;;5.37;2.50;;;11.90;99.90;;;;;;5069307;28;20843;-52
2023/08/10 04:54:45;;;;;;;3.33;2.30;;;11.90;99.90;;;;;;5071612;28;20465;-52
2023/08/10 04:57:12;;;;;;;5.30;2.00;;;11.80;99.90;;;;;;5071055;28;20463;-52
2023/08/10 04:59:38;;;;;;;2.67;1.73;;;11.90;99.90;;;;;;5070121;28;21102;-52
2023/08/10 05:02:05;;;;;;;3.40;2.23;;;11.90;99.90;;;;;;5072595;28;20515;-52
2023/08/10 05:04:32;;;;;;;3.77;2.30;;;11.90;99.90;;;;;;5071961;28;20441;-53
2023/08/10 05:07:00;;;;;;;6.37;2.20;;;11.90;99.90;;;;;;5071041;28;20713;-52
2023/08/10 05:09:26;;;;;;;5.30;2.50;;;11.90;99.90;;;;;;5069556;28;20492;-52
2023/08/10 05:11:53;;;;;;;5.20;2.17;;;11.90;99.90;;;;;;5072624;28;20548;-53
2023/08/10 05:14:19;;;;;;;6.10;2.10;;;11.90;99.90;;;;;;5070047;28;20493;-52
2023/08/10 05:16:46;;;;;;;9.10;2.10;;;11.90;99.90;;;;;;5071233;28;20911;-52
2023/08/10 05:19:12;;;;;;;4.40;2.20;;;12.00;99.90;;;;;;5071392;28;20974;-52
2023/08/10 05:21:39;;;;;;;3.80;2.30;;;12.10;99.90;;;;;;5069438;28;21002;-52
2023/08/10 05:24:07;;;;;;;3.77;2.33;;;12.20;99.90;;;;;;5057227;28;20461;-53
2023/08/10 05:26:34;;;;;;;6.40;2.30;;;12.30;99.90;;;;;;5070383;28;20489;-51
2023/08/10 05:29:01;;;;;;;9.40;3.07;;;12.40;99.90;;;;;;5069544;28;20536;-52
2023/08/10 05:31:27;;;;;;;3.80;2.50;;;12.50;99.90;;;;;;5072193;28;20453;-53
2023/08/10 05:33:54;;;;;;;12.87;2.73;;;12.60;99.90;;;;;;5071184;28;20441;-55
2023/08/10 05:36:21;;;;;;;19.57;2.93;;;12.70;99.90;;;;;;5062794;28;20510;-52
2023/08/10 05:38:47;;;;;;;6.43;2.40;;;12.80;99.90;;;;;;5068272;28;20489;-53
2023/08/10 05:41:15;;;;;;;5.07;2.30;;;12.80;99.90;;;;;;5071308;28;20535;-53
2023/08/10 05:43:42;;;;;;;8.03;3.37;;;12.80;99.90;;;;;;5071535;28;20476;-52
2023/08/10 05:46:08;;;;;;;5.43;2.57;;;12.80;99.90;;;;;;5070813;28;20537;-53
2023/08/10 05:48:35;;;;;;;5.57;2.73;;;12.90;99.90;;;;;;5062290;28;20936;-53
2023/08/10 05:51:01;;;;;;;5.60;2.43;;;12.90;99.90;;;;;;5071864;28;20496;-53
2023/08/10 05:53:28;;;;;;;4.47;2.23;;;12.90;99.90;;;;;;5061077;28;20500;-52
2023/08/10 05:55:54;;;;;;;7.80;2.50;;;12.90;99.90;;;;;;5069151;28;20496;-53
2023/08/10 05:58:22;;;;;;;6.00;2.17;;;13.00;99.90;;;;;;5069600;28;20503;-54
2023/08/10 06:00:49;;;;;;;13.80;2.10;;;13.00;99.90;;;;;;5071554;28;20477;-52
2023/08/10 06:03:15;;;;;;;10.93;3.70;;;12.90;99.90;;;;;;5069704;28;20500;-52
2023/08/10 06:05:43;;;;;;;5.73;2.33;;;13.00;99.90;;;;;;5064541;28;20955;-52
2023/08/10 06:08:10;;;;;;;14.27;2.70;;;13.00;99.90;;;;;;5068213;28;20492;-51
2023/08/10 06:10:36;;;;;;;4.73;2.00;;;13.00;99.90;;;;;;5070489;28;20496;-52
2023/08/10 06:13:03;;;;;;;9.57;2.57;;;13.10;99.90;;;;;;5070988;28;20517;-52
2023/08/10 06:15:31;;;;;;;19.97;2.50;;;13.10;99.90;;;;;;5070698;28;20574;-52
2023/08/10 06:17:57;;;;;;;8.30;2.37;;;13.20;99.90;;;;;;5071585;28;20857;-53
2023/08/10 06:20:26;;;;;;;6.27;3.17;;;13.30;99.90;;;;;;5071617;28;20436;-53
2023/08/10 06:22:54;;;;;;;7.00;2.27;;;13.40;99.90;;;;;;5066831;28;20489;-54
2023/08/10 06:25:21;;;;;;;9.47;2.13;;;13.40;99.90;;;;;;5066808;28;20452;-53
2023/08/10 06:27:48;;;;;;;9.50;2.40;;;13.50;99.90;;;;;;5071376;28;20511;-52
2023/08/10 06:30:14;;;;;;;13.73;2.77;;;13.60;99.90;;;;;;5068913;28;20575;-52
2023/08/10 06:32:43;;;;;;;6.80;1.97;;;13.70;99.90;;;;;;5070264;28;20502;-53
2023/08/10 06:35:10;;;;;;;9.47;2.50;;;13.80;44.30;;;;;;5064068;28;20572;-54
2023/08/10 06:37:37;;;;;;;8.63;2.70;;;13.90;56.10;;;;;;5068138;28;20496;-53
2023/08/10 06:40:08;;;;;;;9.47;2.43;;;14.00;69.60;;;;;;5072197;28;20536;-54
2023/08/10 06:42:35;;;;;;;10.93;2.40;;;14.00;70.70;;;;;;5074964;28;20939;-53
2023/08/10 06:45:02;;;;;;;14.43;2.20;;;14.20;81.90;;;;;;5074066;28;20488;-53
2023/08/10 06:47:28;;;;;;;19.70;2.60;;;14.30;99.90;;;;;;5073302;28;20520;-54
2023/08/10 06:49:56;;;;;;;12.30;2.77;;;14.40;99.90;;;;;;5075511;28;20475;-54
2023/08/10 06:52:24;;;;;;;15.50;3.10;;;14.50;99.90;;;;;;5075197;28;20464;-53
2023/08/10 06:54:52;;;;;;;10.20;2.83;;;14.60;99.90;;;;;;5073267;28;20467;-52
2023/08/10 06:57:19;;;;;;;7.27;2.17;;;14.70;99.90;;;;;;5075217;28;20447;-52
2023/08/10 06:59:45;;;;;;;13.60;2.50;;;14.80;99.90;;;;;;5074976;28;20476;-53
2023/08/10 07:02:12;;;;;;;13.37;2.37;;;14.90;99.90;;;;;;5074723;28;20488;-53
2023/08/10 07:04:39;;;;;;;12.80;2.23;;;15.10;99.90;;;;;;5054565;28;20441;-52
2023/08/10 07:07:07;;;;;;;16.43;2.63;;;15.20;99.90;;;;;;5054942;28;20984;-52
2023/08/10 07:09:34;;;;;;;9.97;2.20;;;15.30;99.90;;;;;;5073207;28;20484;-53
2023/08/10 07:12:00;;;;;;;10.87;2.90;;;15.40;99.90;;;;;;5075054;28;20452;-53
2023/08/10 07:14:27;;;;;;;14.30;2.60;;;15.40;99.90;;;;;;5072942;28;20480;-53
2023/08/10 07:16:53;;;;;;;16.77;3.07;;;15.40;99.90;;;;;;5068138;28;20978;-53
2023/08/10 07:19:20;;;;;;;4.93;1.83;;;15.40;99.90;;;;;;5070315;28;20464;-53
2023/08/10 07:21:46;;;;;;;21.37;2.60;;;15.50;99.90;;;;;;5073453;28;20512;-53
2023/08/10 07:24:14;;;;;;;13.60;2.40;;;15.60;99.90;;;;;;5073847;28;20537;-53
2023/08/10 07:26:41;;;;;;;15.43;2.90;;;15.60;99.90;;;;;;5072501;28;20983;-53
2023/08/10 07:29:08;;;;;;;13.60;2.43;;;15.70;99.90;;;;;;5074421;28;20486;-53
2023/08/10 07:31:34;;;;;;;14.87;2.83;;;15.80;99.90;;;;;;5074533;28;20461;-53
2023/08/10 07:34:01;;;;;;;10.63;2.40;;;15.90;99.90;;;;;;5073596;28;20449;-54
2023/08/10 07:36:28;;;;;;;10.13;2.10;;;16.00;99.90;;;;;;5070252;28;20468;-53
2023/08/10 07:38:55;;;;;;;6.90;1.97;;;16.10;99.90;;;;;;5074388;28;20874;-54
2023/08/10 07:41:24;;;;;;;15.23;2.90;;;16.20;99.90;;;;;;5074307;28;20465;-55
2023/08/10 07:43:50;;;;;;;15.97;3.93;;;16.20;99.90;;;;;;5071909;28;20890;-54
2023/08/10 07:46:17;;;;;;;11.13;2.23;;;16.30;99.90;;;;;;5073161;28;20500;-54
2023/08/10 07:48:43;;;;;;;6.83;2.37;;;16.30;99.90;;;;;;5058930;28;20465;-54
2023/08/10 07:51:10;;;;;;;9.13;2.40;;;16.30;99.90;;;;;;5072439;28;20732;-55
2023/08/10 07:53:36;;;;;;;13.37;3.20;;;16.20;99.90;;;;;;5073077;28;20465;-54
2023/08/10 07:56:03;;;;;;;6.57;2.30;;;16.20;24.10;;;;;;5070662;28;20511;-55
2023/08/10 07:58:31;;;;;;;14.20;2.10;;;16.20;20.20;;;;;;5063910;28;20504;-55
2023/08/10 08:00:58;;;;;;;6.60;1.77;;;16.20;99.90;;;;;;5073823;28;20941;-55
2023/08/10 08:03:24;;;;;;;9.23;2.57;;;16.20;21.80;;;;;;5073849;28;20580;-55
2023/08/10 08:05:51;;;;;;;3.83;1.73;;;16.20;74.30;;;;;;5061627;28;21046;-55
2023/08/10 08:08:17;;;;;;;9.63;1.80;;;16.20;25.10;;;;;;5067917;28;20465;-54
2023/08/10 08:10:44;;;;;;;6.00;2.70;;;16.30;40.80;;;;;;5067927;28;20488;-54
2023/08/10 08:13:10;;;;;;;7.30;2.20;;;16.40;38.40;;;;;;5072656;28;21010;-55
2023/08/10 08:15:39;;;;;;;7.87;2.63;;;16.60;40.80;;;;;;5072903;28;20499;-56
2023/08/10 08:18:41;;;;;;;7.60;1.67;;;16.80;40.70;;;;;;5072844;28;20471;-55
2023/08/10 08:21:08;;;;;;;9.23;1.83;;;17.00;58.10;;;;;;5064622;28;20483;-54
2023/08/10 08:23:35;;;;;;;7.50;1.90;;;17.30;54.10;;;;;;5069523;28;21045;-54
2023/08/10 08:26:02;;;;;;;5.53;1.80;;;17.60;88.80;;;;;;5073367;28;20433;-54
2023/08/10 08:28:28;;;;;;;4.97;1.73;;;17.40;91.80;;;;;;5080914;28;20519;-54
2023/08/10 08:30:56;;;;;;;9.73;1.80;;;17.30;99.90;;;;;;5090991;28;20507;-53
2023/08/10 08:33:23;;;;;;;5.67;1.43;;;17.20;89.40;;;;;;5073479;28;20531;-53
2023/08/10 08:35:50;;;;;;;10.60;2.27;;;17.20;79.40;;;;;;5071482;28;20979;-54
2023/08/10 08:38:18;;;;;;;6.60;2.13;;;17.20;76.80;;;;;;5072595;28;20471;-55
2023/08/10 08:40:45;;;;;;;6.97;2.10;;;17.30;63.20;;;;;;5073246;28;20437;-54
2023/08/10 08:43:12;;;;;;;7.67;2.67;;;17.30;79.40;;;;;;5073370;28;20480;-54
2023/08/10 08:45:40;;;;;;;11.83;2.60;;;17.30;66.30;;;;;;5071786;28;20477;-53
2023/08/10 08:48:09;;;;;;;9.20;2.27;;;17.20;79.10;;;;;;5073365;28;20852;-54
2023/08/10 08:50:36;;;;;;;3.80;2.17;;;17.40;64.00;;;;;;5071572;28;20947;-54
2023/08/10 08:53:05;;;;;;;8.63;2.80;;;17.30;68.80;;;;;;5071039;28;20488;-54
2023/08/10 08:55:32;;;;;;;7.00;2.10;;;17.40;75.20;;;;;;5070195;28;20469;-54
2023/08/10 08:57:58;;;;;;;9.43;2.40;;;17.40;79.30;;;;;;5071302;28;20501;-54
2023/08/10 09:00:25;;;;;;;7.27;2.43;;;17.50;99.90;;;;;;5067433;28;20515;-55
2023/08/10 09:02:52;;;;;;;4.30;1.63;;;17.60;99.90;;;;;;5063863;28;20512;-54
2023/08/10 09:05:20;;;;;;;4.53;1.50;;;17.60;99.90;;;;;;5068514;28;20554;-55
2023/08/10 09:07:47;;;;;;;4.43;1.70;;;17.60;99.90;;;;;;5068385;28;21211;-53
2023/08/10 09:10:13;;;;;;;9.13;2.13;;;17.50;99.90;;;;;;5065675;28;20489;-54
2023/08/10 09:12:41;;;;;;;7.90;2.20;;;17.60;96.90;;;;;;5067352;28;20563;-54
2023/08/10 09:15:10;;;;;;;6.10;1.70;;;17.70;98.20;;;;;;5067166;28;20939;-54
2023/08/10 09:17:37;;;;;;;8.10;2.03;;;17.80;99.90;;;;;;5071345;28;20497;-55
2023/08/10 09:20:06;;;;;;;7.17;2.10;;;18.10;97.30;;;;;;5063488;28;20539;-54
2023/08/10 09:22:36;;;;;;;7.37;1.97;;;18.10;99.90;;;;;;5066217;28;20924;-54
2023/08/10 09:25:04;;;;;;;11.13;2.30;;;18.10;99.90;;;;;;5067940;28;20496;-54
2023/08/10 09:27:31;;;;;;;6.63;2.00;;;17.80;99.90;;;;;;5067297;28;20800;-54
2023/08/10 09:29:59;;;;;;;4.90;2.17;;;17.70;97.40;;;;;;5070748;28;20465;-54
2023/08/10 09:32:25;;;;;;;9.00;1.97;;;17.60;99.90;;;;;;5063939;28;20911;-54
2023/08/10 09:34:52;;;;;;;6.47;1.83;;;17.40;99.90;;;;;;5068002;28;20468;-54
2023/08/10 09:37:19;;;;;;;7.30;1.63;;;17.40;99.90;;;;;;5070069;28;20492;-55
2023/08/10 09:39:56;;;;;;;7.53;2.60;;;17.40;99.90;;;;;;5070189;28;20461;-55
2023/08/10 09:42:22;;;;;;;8.90;2.83;;;17.70;99.90;;;;;;5064446;28;20947;-54
2023/08/10 09:44:51;;;;;;;9.20;1.73;;;18.50;99.90;;;;;;5068610;28;20465;-54
2023/08/10 09:47:20;;;;;;;4.07;1.70;;;18.70;99.90;;;;;;5062630;28;20461;-54
2023/08/10 09:49:55;;;;;;;10.43;1.80;;;19.00;99.90;;;;;;5055680;28;20457;-55
2023/08/10 09:52:22;;;;;;;5.37;1.77;;;18.90;99.90;;;;;;5070838;28;20468;-53
2023/08/10 09:54:51;;;;;;;10.40;1.90;;;19.10;99.90;;;;;;5062491;28;20453;-54
2023/08/10 09:57:18;;;;;;;8.93;2.77;;;19.20;99.90;;;;;;5070335;28;20833;-55
2023/08/10 09:59:46;;;;;;;7.47;1.70;;;19.30;99.90;;;;;;5076923;28;20453;-60
2023/08/10 10:02:13;;;;;;;8.13;1.80;;;19.40;99.90;;;;;;5077210;28;20482;-54
2023/08/10 10:04:40;;;;;;;6.50;1.60;;;19.30;99.90;;;;;;5079099;28;20461;-55
2023/08/10 10:07:08;;;;;;;5.90;1.90;;;19.50;99.90;;;;;;5081912;28;20465;-54
2023/08/10 10:09:37;;;;;;;5.03;1.57;;;19.70;99.90;;;;;;5067503;28;20465;-55
2023/08/10 10:12:08;;;;;;;4.23;1.47;;;20.00;99.90;;;;;;5067199;28;21011;-55
2023/08/10 10:14:36;;;;;;;3.67;1.40;;;19.90;99.90;;;;;;5067930;28;20469;-54
2023/08/10 10:17:03;;;;;;;5.93;1.60;;;19.80;99.90;;;;;;5066426;28;20493;-55
2023/08/10 10:19:31;;;;;;;8.23;1.77;;;19.50;99.90;;;;;;5071132;28;21110;-54
2023/08/10 10:21:59;;;;;;;8.07;2.10;;;19.20;99.90;;;;;;5068123;28;20531;-54
2023/08/10 10:24:27;;;;;;;9.10;2.30;;;18.90;99.90;;;;;;5068895;28;20480;-55
2023/08/10 10:27:05;;;;;;;5.83;1.93;;;19.00;99.90;;;;;;5061441;28;20468;-55
2023/08/10 10:29:40;;;;;;;14.20;2.00;;;19.80;99.90;;;;;;5071156;28;20452;-54
2023/08/10 10:32:13;;;;;;;4.87;1.77;;;20.70;99.90;;;;;;5070785;28;20480;-54
2023/08/10 10:34:40;;;;;;;11.73;1.80;;;20.90;99.90;;;;;;5067704;28;20510;-54
2023/08/10 10:37:08;;;;;;;4.00;1.67;;;20.50;99.90;;;;;;5067715;28;20836;-55
2023/08/10 10:39:35;;;;;;;6.47;2.30;;;20.90;99.90;;;;;;5070615;28;20467;-54
2023/08/10 10:42:02;;;;;;;5.20;2.07;;;22.10;99.90;;;;;;5069950;28;20487;-55
2023/08/10 10:45:03;;;;;;;7.03;1.80;;;23.10;99.90;;;;;;5069304;28;20481;-55
2023/08/10 10:47:38;;;;;;;3.90;1.60;;;23.30;99.90;;;;;;5068599;28;20853;-55
2023/08/10 10:50:16;;;;;;;3.43;2.30;;;24.50;99.90;;;;;;5067528;28;20844;-55
2023/08/10 10:52:54;;;;;;;4.33;2.13;;;23.70;99.90;;;;;;5068975;28;20481;-54
2023/08/10 10:55:21;;;;;;;7.63;2.00;;;21.70;99.90;;;;;;5068501;28;20510;-53
2023/08/10 10:57:49;;;;;;;7.10;2.00;;;20.80;99.90;;;;;;5069150;28;20502;-54
2023/08/10 11:00:17;;;;;;;7.23;1.70;;;20.10;99.90;;;;;;5067997;28;20452;-55
2023/08/10 11:02:46;;;;;;;4.97;1.47;;;19.50;99.90;;;;;;5068468;28;20489;-55
2023/08/10 11:05:14;;;;;;;6.30;1.73;;;19.00;99.90;;;;;;5057698;28;20488;-54
2023/08/10 11:07:41;;;;;;;3.87;1.93;;;19.40;99.90;;;;;;5061649;28;20482;-54
2023/08/10 11:10:08;;;;;;;3.93;1.83;;;19.40;99.90;;;;;;5065686;28;20493;-54
2023/08/10 11:12:38;;;;;;;5.23;1.70;;;19.40;99.90;;;;;;5062828;28;20461;-54
2023/08/10 11:15:06;;;;;;;2.50;1.60;;;19.20;99.90;;;;;;5070612;28;20476;-54
2023/08/10 11:17:33;;;;;;;3.40;2.00;;;19.30;99.90;;;;;;5069754;28;20529;-54
2023/08/10 11:20:01;;;;;;;17.13;2.60;;;20.50;99.90;;;;;;5065531;28;20555;-54
2023/08/10 11:22:28;;;;;;;5.10;2.07;;;21.90;99.90;;;;;;5067386;28;20461;-54
2023/08/10 11:24:54;;;;;;;3.03;1.40;;;22.70;99.90;;;;;;5070105;28;20930;-54
2023/08/10 11:27:21;;;;;;;4.60;1.50;;;23.70;99.90;;;;;;5072264;28;20826;-53
2023/08/10 11:29:48;;;;;;;1.83;1.60;;;23.80;99.90;;;;;;5074541;28;20449;-54
2023/08/10 11:32:15;;;;;;;7.90;1.97;;;23.20;99.90;;;;;;5074227;28;20970;-54
2023/08/10 11:34:41;;;;;;;8.70;1.90;;;22.30;99.90;;;;;;5071271;28;20460;-54
2023/08/10 11:37:09;;;;;;;6.83;1.90;;;21.90;99.90;;;;;;5074203;28;20494;-54
2023/08/10 11:39:36;;;;;;;3.83;1.53;;;21.20;99.90;;;;;;5074498;28;20496;-55
2023/08/10 11:42:03;;;;;;;2.57;1.50;;;20.90;99.90;;;;;;5072811;28;20481;-54
2023/08/10 11:44:32;;;;;;;4.93;1.60;;;21.10;99.90;;;;;;5072809;28;20516;-55
2023/08/10 11:46:59;;;;;;;5.47;1.70;;;21.10;99.90;;;;;;5068198;28;20472;-55
2023/08/10 11:49:30;;;;;;;6.17;1.73;;;21.10;99.90;;;;;;5072972;28;20903;-55
2023/08/10 11:52:00;;;;;;;4.10;1.87;;;20.40;99.90;;;;;;5071875;28;20542;-54
2023/08/10 11:54:34;;;;;;;2.97;2.03;;;20.20;99.90;;;;;;5073051;28;20457;-55
2023/08/10 11:57:09;;;;;;;3.73;1.53;;;20.00;99.90;;;;;;5071799;28;20518;-54
2023/08/10 11:59:36;;;;;;;3.57;1.20;;;19.90;99.90;;;;;;5072414;28;20548;-54
2023/08/10 12:02:04;;;;;;;5.60;1.37;;;19.90;99.90;;;;;;5064878;28;20924;-55
2023/08/10 12:04:31;;;;;;;12.33;1.70;;;20.00;99.90;;;;;;5066345;28;20481;-53
2023/08/10 12:06:58;;;;;;;4.30;1.33;;;20.50;99.90;;;;;;5065193;28;20484;-54
2023/08/10 12:09:30;;;;;;;4.27;2.23;;;20.90;99.90;;;;;;5066404;28;20495;-55
2023/08/10 12:11:58;;;;;;;4.20;1.77;;;21.10;99.90;;;;;;5071031;28;20523;-55
2023/08/10 12:14:25;;;;;;;2.00;1.40;;;21.20;99.90;;;;;;5073090;28;20433;-54
2023/08/10 12:16:52;;;;;;;5.80;1.90;;;21.00;99.90;;;;;;5072606;28;20487;-54
2023/08/10 12:19:18;;;;;;;5.83;1.13;;;21.00;99.90;;;;;;5071167;28;20488;-55
2023/08/10 12:21:46;;;;;;;6.37;1.53;;;20.40;99.90;;;;;;5069472;28;20530;-54
2023/08/10 12:24:12;;;;;;;4.50;1.47;;;20.20;99.90;;;;;;5067011;28;21009;-54
2023/08/10 12:26:39;;;;;;;9.40;2.00;;;19.80;99.90;;;;;;5073240;28;20496;-55
2023/08/10 12:29:07;;;;;;;5.07;1.80;;;19.70;99.90;;;;;;5072043;28;20470;-59
2023/08/10 12:31:33;;;;;;;4.80;2.00;;;19.50;99.90;;;;;;5071349;28;20513;-55
2023/08/10 12:34:00;;;;;;;8.77;1.80;;;19.50;99.90;;;;;;5071357;28;20902;-54
2023/08/10 12:36:27;;;;;;;5.73;1.87;;;19.40;99.90;;;;;;5072681;28;20461;-55
2023/08/10 12:38:54;;;;;;;5.97;1.77;;;19.40;99.90;;;;;;5072942;28;20536;-54
2023/08/10 12:41:21;;;;;;;2.23;1.57;;;19.90;99.90;;;;;;5070666;28;20491;-54
2023/08/10 12:43:47;;;;;;;2.70;1.53;;;20.30;99.90;;;;;;5072095;28;20572;-55
2023/08/10 12:46:18;;;;;;;4.70;1.77;;;20.50;99.90;;;;;;5072916;28;20493;-55
2023/08/10 12:48:45;;;;;;;12.37;1.93;;;20.70;99.90;;;;;;5070089;28;20457;-55